PAA825 PHNL-NSTU
Flight info
| Callsign | PAA825 |
|---|---|
| Flight time | 5h 6m |
| Altitude | 33000 |
| Route | OPIHI3 CARRP DCT DATBE/N0504F340 G457 LAKER DCT SETTS |
| Aircraft | B741/H-SDFHIRWXY/L |
Departure
| Time | 2026-04-25 19:12 |
|---|---|
| Airport | Daniel K. Inouye International Airport (PHNL) |
Arrival
| Time | 2026-04-26 00:19 |
|---|---|
| Airport | Pago Pago International Airport (NSTU) |
| Time | Latitude | Longitude | Altitude | Speed | Heading |
|---|---|---|---|---|---|
| 2026-04-25 18:14 | 21.33001 | -157.91744 | 39 ft | 0 kts | 99° |
| 2026-04-25 18:51 | 21.33002 | -157.91753 | 40 ft | 2 kts | 99° |
| 2026-04-25 18:51 | 21.33004 | -157.91763 | 40 ft | 2 kts | 99° |
| 2026-04-25 18:51 | 21.33007 | -157.91785 | 40 ft | 2 kts | 99° |
| 2026-04-25 18:51 | 21.33010 | -157.91800 | 41 ft | 2 kts | 99° |
| 2026-04-25 18:52 | 21.33012 | -157.91815 | 41 ft | 2 kts | 99° |
| 2026-04-25 18:52 | 21.33014 | -157.91832 | 41 ft | 2 kts | 99° |
| 2026-04-25 18:52 | 21.33017 | -157.91847 | 41 ft | 2 kts | 99° |
| 2026-04-25 18:52 | 21.33018 | -157.91853 | 41 ft | 0 kts | 99° |
| 2026-04-25 18:59 | 21.33004 | -157.91836 | 41 ft | 6 kts | 152° |
| 2026-04-25 18:59 | 21.32899 | -157.91836 | 39 ft | 9 kts | 189° |
| 2026-04-25 19:00 | 21.32776 | -157.91885 | 36 ft | 8 kts | 253° |
| 2026-04-25 19:00 | 21.32773 | -157.91963 | 37 ft | 13 kts | 270° |
| 2026-04-25 19:01 | 21.32773 | -157.92188 | 38 ft | 15 kts | 270° |
| 2026-04-25 19:01 | 21.32774 | -157.92313 | 39 ft | 19 kts | 270° |
| 2026-04-25 19:01 | 21.32774 | -157.92464 | 39 ft | 19 kts | 270° |
| 2026-04-25 19:01 | 21.32774 | -157.92607 | 38 ft | 18 kts | 270° |
| 2026-04-25 19:02 | 21.32741 | -157.92860 | 37 ft | 15 kts | 269° |
| 2026-04-25 19:02 | 21.32741 | -157.92981 | 36 ft | 17 kts | 270° |
| 2026-04-25 19:02 | 21.32741 | -157.93114 | 35 ft | 19 kts | 270° |
| 2026-04-25 19:03 | 21.32741 | -157.93398 | 33 ft | 23 kts | 270° |
| 2026-04-25 19:03 | 21.32741 | -157.93619 | 33 ft | 21 kts | 270° |
| 2026-04-25 19:03 | 21.32741 | -157.93779 | 33 ft | 21 kts | 270° |
| 2026-04-25 19:04 | 21.32714 | -157.94058 | 34 ft | 17 kts | 233° |
| 2026-04-25 19:04 | 21.32624 | -157.94127 | 34 ft | 14 kts | 210° |
| 2026-04-25 19:05 | 21.32368 | -157.94281 | 35 ft | 26 kts | 209° |
| 2026-04-25 19:05 | 21.32056 | -157.94466 | 34 ft | 23 kts | 209° |
| 2026-04-25 19:05 | 21.31909 | -157.94554 | 32 ft | 24 kts | 209° |
| 2026-04-25 19:06 | 21.31768 | -157.94635 | 30 ft | 17 kts | 203° |
| 2026-04-25 19:06 | 21.31535 | -157.94641 | 26 ft | 16 kts | 173° |
| 2026-04-25 19:06 | 21.31412 | -157.94624 | 23 ft | 19 kts | 173° |
| 2026-04-25 19:07 | 21.31089 | -157.94583 | 18 ft | 20 kts | 173° |
| 2026-04-25 19:07 | 21.30955 | -157.94568 | 17 ft | 18 kts | 178° |
| 2026-04-25 19:08 | 21.30744 | -157.94568 | 16 ft | 9 kts | 175° |
| 2026-04-25 19:08 | 21.30694 | -157.94539 | 16 ft | 7 kts | 124° |
| 2026-04-25 19:09 | 21.30681 | -157.94478 | 15 ft | 0 kts | 91° |
| 2026-04-25 19:11 | 21.30681 | -157.94463 | 15 ft | 7 kts | 90° |
| 2026-04-25 19:11 | 21.30681 | -157.94238 | 16 ft | 60 kts | 90° |
| 2026-04-25 19:11 | 21.30681 | -157.93564 | 17 ft | 118 kts | 90° |
| 2026-04-25 19:11 | 21.30680 | -157.92487 | 22 ft | 168 kts | 89° |
| 2026-04-25 19:12 | 21.30671 | -157.91183 | 423 ft | 178 kts | 88° |
| 2026-04-25 19:12 | 21.30526 | -157.89908 | 1151 ft | 172 kts | 107° |
| 2026-04-25 19:12 | 21.29764 | -157.88915 | 1625 ft | 189 kts | 149° |
| 2026-04-25 19:12 | 21.28382 | -157.88745 | 1925 ft | 210 kts | 186° |
| 2026-04-25 19:13 | 21.27001 | -157.89026 | 2403 ft | 197 kts | 186° |
| 2026-04-25 19:13 | 21.25614 | -157.89351 | 2525 ft | 207 kts | 189° |
| 2026-04-25 19:13 | 21.24202 | -157.89719 | 2728 ft | 211 kts | 189° |
| 2026-04-25 19:13 | 21.22764 | -157.90093 | 2964 ft | 214 kts | 189° |
| 2026-04-25 19:14 | 21.21302 | -157.90472 | 3204 ft | 216 kts | 189° |
| 2026-04-25 19:14 | 21.20313 | -157.90741 | 3362 ft | 218 kts | 193° |
| 2026-04-25 19:14 | 21.18737 | -157.92081 | 3668 ft | 225 kts | 235° |
| 2026-04-25 19:14 | 21.17744 | -157.93398 | 3893 ft | 229 kts | 224° |
| 2026-04-25 19:15 | 21.16569 | -157.94577 | 4133 ft | 233 kts | 219° |
| 2026-04-25 19:15 | 21.15323 | -157.95694 | 4372 ft | 238 kts | 217° |
| 2026-04-25 19:15 | 21.14005 | -157.96834 | 4615 ft | 244 kts | 217° |
| 2026-04-25 19:15 | 21.12686 | -157.97983 | 4853 ft | 250 kts | 217° |
| 2026-04-25 19:16 | 21.11291 | -157.99162 | 5073 ft | 258 kts | 216° |
| 2026-04-25 19:16 | 21.09824 | -158.00357 | 5222 ft | 271 kts | 216° |
| 2026-04-25 19:16 | 21.08286 | -158.01585 | 5382 ft | 284 kts | 215° |
| 2026-04-25 19:16 | 21.06661 | -158.02878 | 5696 ft | 293 kts | 215° |
| 2026-04-25 19:17 | 21.05024 | -158.04179 | 6318 ft | 291 kts | 216° |
| 2026-04-25 19:17 | 21.03406 | -158.05463 | 6854 ft | 292 kts | 216° |
| 2026-04-25 19:17 | 21.01769 | -158.06764 | 7321 ft | 295 kts | 216° |
| 2026-04-25 19:17 | 21.00117 | -158.08075 | 7828 ft | 297 kts | 217° |
| 2026-04-25 19:18 | 20.98441 | -158.09405 | 8330 ft | 299 kts | 217° |
| 2026-04-25 19:18 | 20.96785 | -158.10721 | 8827 ft | 301 kts | 217° |
| 2026-04-25 19:18 | 20.95077 | -158.12076 | 9266 ft | 304 kts | 218° |
| 2026-04-25 19:18 | 20.93383 | -158.13420 | 9729 ft | 306 kts | 218° |
| 2026-04-25 19:19 | 20.91667 | -158.14783 | 10216 ft | 307 kts | 218° |
| 2026-04-25 19:19 | 20.89927 | -158.16162 | 10524 ft | 315 kts | 218° |
| 2026-04-25 19:19 | 20.88138 | -158.17583 | 10769 ft | 326 kts | 218° |
| 2026-04-25 19:19 | 20.86893 | -158.18568 | 10935 ft | 333 kts | 218° |
| 2026-04-25 19:20 | 20.84352 | -158.20581 | 11260 ft | 348 kts | 218° |
| 2026-04-25 19:20 | 20.82383 | -158.22137 | 11502 ft | 359 kts | 218° |
| 2026-04-25 19:20 | 20.80319 | -158.23772 | 11751 ft | 371 kts | 218° |
| 2026-04-25 19:20 | 20.78227 | -158.25426 | 11992 ft | 382 kts | 218° |
| 2026-04-25 19:21 | 20.76054 | -158.27142 | 12236 ft | 393 kts | 218° |
| 2026-04-25 19:21 | 20.71612 | -158.30652 | 13251 ft | 398 kts | 218° |
| 2026-04-25 19:21 | 20.69387 | -158.32410 | 13773 ft | 400 kts | 217° |
| 2026-04-25 19:22 | 20.67133 | -158.34190 | 14213 ft | 405 kts | 217° |
| 2026-04-25 19:22 | 20.64854 | -158.35989 | 14729 ft | 407 kts | 217° |
| 2026-04-25 19:22 | 20.60284 | -158.39594 | 15653 ft | 414 kts | 217° |
| 2026-04-25 19:23 | 20.57937 | -158.41443 | 16125 ft | 417 kts | 217° |
| 2026-04-25 19:23 | 20.53278 | -158.45113 | 17073 ft | 422 kts | 217° |
| 2026-04-25 19:23 | 20.50898 | -158.46986 | 17531 ft | 425 kts | 217° |
| 2026-04-25 19:24 | 20.48516 | -158.48860 | 17970 ft | 428 kts | 217° |
| 2026-04-25 19:24 | 20.46092 | -158.50768 | 18439 ft | 430 kts | 216° |
| 2026-04-25 19:24 | 20.41255 | -158.54568 | 19346 ft | 436 kts | 216° |
| 2026-04-25 19:25 | 20.36327 | -158.58440 | 20242 ft | 442 kts | 216° |
| 2026-04-25 19:25 | 20.33843 | -158.60390 | 20722 ft | 444 kts | 216° |
| 2026-04-25 19:25 | 20.31366 | -158.62334 | 21105 ft | 448 kts | 216° |
| 2026-04-25 19:26 | 20.28825 | -158.64325 | 21546 ft | 450 kts | 216° |
| 2026-04-25 19:26 | 20.26328 | -158.66283 | 21979 ft | 452 kts | 216° |
| 2026-04-25 19:26 | 20.23761 | -158.68292 | 22365 ft | 455 kts | 216° |
| 2026-04-25 19:26 | 20.21211 | -158.70290 | 22783 ft | 457 kts | 216° |
| 2026-04-25 19:27 | 20.18647 | -158.72296 | 23194 ft | 459 kts | 216° |
| 2026-04-25 19:27 | 20.16911 | -158.73656 | 23415 ft | 462 kts | 216° |
| 2026-04-25 19:27 | 20.13467 | -158.76349 | 23918 ft | 465 kts | 216° |
| 2026-04-25 19:27 | 20.10838 | -158.78404 | 24297 ft | 467 kts | 216° |
| 2026-04-25 19:28 | 20.08236 | -158.80438 | 24662 ft | 469 kts | 216° |
| 2026-04-25 19:28 | 20.05578 | -158.82516 | 24955 ft | 472 kts | 216° |
| 2026-04-25 19:28 | 20.02940 | -158.84578 | 25310 ft | 474 kts | 216° |
| 2026-04-25 19:28 | 20.00275 | -158.86659 | 25606 ft | 477 kts | 216° |
| 2026-04-25 19:29 | 19.97578 | -158.88763 | 25948 ft | 479 kts | 216° |
| 2026-04-25 19:29 | 19.94884 | -158.90866 | 26230 ft | 482 kts | 216° |
| 2026-04-25 19:29 | 19.92175 | -158.92978 | 26544 ft | 484 kts | 216° |
| 2026-04-25 19:29 | 19.89435 | -158.95114 | 26806 ft | 487 kts | 216° |
| 2026-04-25 19:30 | 19.86689 | -158.97253 | 27089 ft | 489 kts | 216° |
| 2026-04-25 19:30 | 19.83964 | -158.99376 | 27372 ft | 491 kts | 216° |
| 2026-04-25 19:30 | 19.81202 | -159.01526 | 27671 ft | 492 kts | 217° |
| 2026-04-25 19:30 | 19.78416 | -159.03694 | 27945 ft | 493 kts | 217° |
| 2026-04-25 19:31 | 19.75669 | -159.05830 | 28171 ft | 495 kts | 217° |
| 2026-04-25 19:31 | 19.72867 | -159.08008 | 28416 ft | 497 kts | 217° |
| 2026-04-25 19:31 | 19.70091 | -159.10165 | 28671 ft | 498 kts | 217° |
| 2026-04-25 19:31 | 19.67263 | -159.12364 | 28863 ft | 501 kts | 217° |
| 2026-04-25 19:32 | 19.64448 | -159.14549 | 29130 ft | 501 kts | 217° |
| 2026-04-25 19:32 | 19.61618 | -159.16745 | 29373 ft | 502 kts | 217° |
| 2026-04-25 19:32 | 19.58785 | -159.18942 | 29546 ft | 504 kts | 217° |
| 2026-04-25 19:32 | 19.56906 | -159.20399 | 29657 ft | 506 kts | 217° |
| 2026-04-25 19:33 | 19.53102 | -159.23347 | 29993 ft | 506 kts | 218° |
| 2026-04-25 19:33 | 19.50250 | -159.25555 | 30323 ft | 504 kts | 218° |
| 2026-04-25 19:33 | 19.47415 | -159.27750 | 30767 ft | 499 kts | 218° |
| 2026-04-25 19:33 | 19.44628 | -159.29906 | 31094 ft | 498 kts | 218° |
| 2026-04-25 19:34 | 19.41841 | -159.32062 | 31460 ft | 494 kts | 218° |
| 2026-04-25 19:34 | 19.39072 | -159.34203 | 31865 ft | 491 kts | 219° |
| 2026-04-25 19:34 | 19.36329 | -159.36322 | 32167 ft | 489 kts | 219° |
| 2026-04-25 19:34 | 19.33574 | -159.38452 | 32453 ft | 488 kts | 219° |
| 2026-04-25 19:35 | 19.30846 | -159.40558 | 32765 ft | 486 kts | 219° |
| 2026-04-25 19:35 | 19.28086 | -159.42688 | 32987 ft | 486 kts | 219° |
| 2026-04-25 19:35 | 19.22597 | -159.46927 | 33047 ft | 494 kts | 220° |
| 2026-04-25 19:36 | 19.17008 | -159.51239 | 33052 ft | 502 kts | 219° |
| 2026-04-25 19:36 | 19.11346 | -159.55566 | 33050 ft | 498 kts | 217° |
| 2026-04-25 19:37 | 19.08286 | -159.57262 | 33037 ft | 498 kts | 205° |
| 2026-04-25 19:37 | 19.04925 | -159.58264 | 33046 ft | 502 kts | 193° |
| 2026-04-25 19:37 | 18.97833 | -159.58553 | 33044 ft | 513 kts | 181° |
| 2026-04-25 19:38 | 18.90694 | -159.58157 | 33042 ft | 517 kts | 180° |
| 2026-04-25 19:38 | 18.83500 | -159.57796 | 33043 ft | 514 kts | 181° |
| 2026-04-25 19:39 | 18.76336 | -159.57523 | 33038 ft | 514 kts | 182° |
| 2026-04-25 19:39 | 18.69176 | -159.57283 | 33039 ft | 515 kts | 182° |
| 2026-04-25 19:40 | 18.62015 | -159.57044 | 33033 ft | 515 kts | 182° |
| 2026-04-25 19:40 | 18.54846 | -159.56801 | 33033 ft | 513 kts | 182° |
| 2026-04-25 19:41 | 18.47692 | -159.56558 | 33034 ft | 513 kts | 182° |
| 2026-04-25 19:41 | 18.41725 | -159.56358 | 33029 ft | 514 kts | 183° |
| 2026-04-25 19:42 | 18.33416 | -159.56078 | 33030 ft | 514 kts | 183° |
| 2026-04-25 19:42 | 18.26242 | -159.55835 | 33027 ft | 513 kts | 183° |
| 2026-04-25 19:43 | 18.19045 | -159.55592 | 33032 ft | 514 kts | 183° |
| 2026-04-25 19:43 | 18.11896 | -159.55351 | 33023 ft | 513 kts | 183° |
| 2026-04-25 19:44 | 18.04788 | -159.55112 | 33023 ft | 513 kts | 183° |
| 2026-04-25 19:44 | 17.97587 | -159.54869 | 33027 ft | 513 kts | 183° |
| 2026-04-25 19:45 | 17.90471 | -159.54631 | 33028 ft | 513 kts | 183° |
| 2026-04-25 19:45 | 17.83294 | -159.54390 | 33026 ft | 513 kts | 183° |
| 2026-04-25 19:46 | 17.76190 | -159.54446 | 33029 ft | 504 kts | 193° |
| 2026-04-25 19:46 | 17.69449 | -159.56204 | 33031 ft | 497 kts | 203° |
| 2026-04-25 19:47 | 17.62908 | -159.58578 | 33028 ft | 496 kts | 205° |
| 2026-04-25 19:47 | 17.56385 | -159.60983 | 33027 ft | 495 kts | 204° |
| 2026-04-25 19:48 | 17.49885 | -159.63327 | 33028 ft | 495 kts | 204° |
| 2026-04-25 19:48 | 17.43324 | -159.65668 | 33029 ft | 496 kts | 204° |
| 2026-04-25 19:49 | 17.37903 | -159.67596 | 33028 ft | 496 kts | 204° |
| 2026-04-25 19:49 | 17.30268 | -159.70309 | 33027 ft | 494 kts | 204° |
| 2026-04-25 19:50 | 17.20454 | -159.73796 | 33037 ft | 496 kts | 204° |
| 2026-04-25 19:50 | 17.17191 | -159.74953 | 33349 ft | 490 kts | 204° |
| 2026-04-25 19:51 | 17.13969 | -159.76094 | 33605 ft | 488 kts | 204° |
| 2026-04-25 19:51 | 17.10781 | -159.77225 | 33860 ft | 485 kts | 204° |
| 2026-04-25 19:51 | 17.07576 | -159.78361 | 34000 ft | 485 kts | 204° |
| 2026-04-25 19:52 | 17.01128 | -159.80650 | 34028 ft | 490 kts | 204° |
| 2026-04-25 19:52 | 16.94643 | -159.82950 | 34025 ft | 493 kts | 204° |
| 2026-04-25 19:53 | 16.88149 | -159.85245 | 34021 ft | 490 kts | 204° |
| 2026-04-25 19:53 | 16.81665 | -159.87538 | 34024 ft | 490 kts | 204° |
| 2026-04-25 19:54 | 16.75177 | -159.89831 | 34022 ft | 492 kts | 204° |
| 2026-04-25 19:54 | 16.68713 | -159.92114 | 34021 ft | 490 kts | 204° |
| 2026-04-25 19:55 | 16.62243 | -159.94395 | 34017 ft | 489 kts | 204° |
| 2026-04-25 19:55 | 16.55795 | -159.96670 | 34015 ft | 489 kts | 204° |
| 2026-04-25 19:56 | 16.49327 | -159.98950 | 34015 ft | 490 kts | 204° |
| 2026-04-25 19:56 | 16.42882 | -160.01219 | 34016 ft | 490 kts | 204° |
| 2026-04-25 19:57 | 16.36412 | -160.03496 | 34014 ft | 491 kts | 204° |
| 2026-04-25 19:57 | 16.29931 | -160.05775 | 34010 ft | 490 kts | 204° |
| 2026-04-25 19:58 | 16.23475 | -160.08043 | 34011 ft | 489 kts | 204° |
| 2026-04-25 19:58 | 16.17001 | -160.10316 | 34009 ft | 489 kts | 204° |
| 2026-04-25 19:59 | 16.10537 | -160.12584 | 34009 ft | 488 kts | 204° |
| 2026-04-25 19:59 | 16.04090 | -160.14845 | 34009 ft | 490 kts | 204° |
| 2026-04-25 20:00 | 15.97630 | -160.17110 | 34007 ft | 490 kts | 204° |
| 2026-04-25 20:00 | 15.91164 | -160.19374 | 34007 ft | 489 kts | 204° |
| 2026-04-25 20:01 | 15.81488 | -160.22759 | 34007 ft | 488 kts | 204° |
| 2026-04-25 20:01 | 15.75042 | -160.25012 | 34007 ft | 488 kts | 204° |
| 2026-04-25 20:02 | 15.68572 | -160.27272 | 34007 ft | 488 kts | 204° |
| 2026-04-25 20:02 | 15.62141 | -160.29518 | 34006 ft | 488 kts | 204° |
| 2026-04-25 20:03 | 15.55704 | -160.31764 | 34007 ft | 488 kts | 204° |
| 2026-04-25 20:03 | 15.49208 | -160.34029 | 34006 ft | 489 kts | 204° |
| 2026-04-25 20:04 | 15.42749 | -160.36279 | 34007 ft | 488 kts | 204° |
| 2026-04-25 20:04 | 15.36297 | -160.38525 | 34006 ft | 489 kts | 204° |
| 2026-04-25 20:05 | 15.29852 | -160.40768 | 34006 ft | 489 kts | 204° |
| 2026-04-25 20:05 | 15.23390 | -160.43016 | 34005 ft | 488 kts | 204° |
| 2026-04-25 20:06 | 15.16935 | -160.45259 | 34006 ft | 488 kts | 204° |
| 2026-04-25 20:06 | 15.10478 | -160.47502 | 34007 ft | 489 kts | 204° |
| 2026-04-25 20:07 | 15.04042 | -160.49736 | 34007 ft | 490 kts | 204° |
| 2026-04-25 20:07 | 14.97545 | -160.51988 | 34004 ft | 489 kts | 204° |
| 2026-04-25 20:08 | 14.91127 | -160.54213 | 34002 ft | 488 kts | 204° |
| 2026-04-25 20:08 | 14.84624 | -160.56467 | 34003 ft | 488 kts | 204° |
| 2026-04-25 20:09 | 14.78193 | -160.58693 | 34002 ft | 487 kts | 204° |
| 2026-04-25 20:09 | 14.71768 | -160.60916 | 34002 ft | 488 kts | 204° |
| 2026-04-25 20:10 | 14.65323 | -160.63145 | 34000 ft | 489 kts | 204° |
| 2026-04-25 20:10 | 14.58846 | -160.65382 | 34003 ft | 489 kts | 204° |
| 2026-04-25 20:11 | 14.52394 | -160.67610 | 33997 ft | 489 kts | 204° |
| 2026-04-25 20:11 | 14.45890 | -160.69856 | 33996 ft | 490 kts | 204° |
| 2026-04-25 20:12 | 14.39423 | -160.72086 | 33994 ft | 489 kts | 204° |
| 2026-04-25 20:12 | 14.34016 | -160.73949 | 33994 ft | 489 kts | 204° |
| 2026-04-25 20:13 | 14.26506 | -160.76537 | 33992 ft | 489 kts | 204° |
| 2026-04-25 20:13 | 14.20037 | -160.78764 | 33988 ft | 488 kts | 204° |
| 2026-04-25 20:14 | 14.13556 | -160.80994 | 33992 ft | 488 kts | 204° |
| 2026-04-25 20:14 | 14.07113 | -160.83209 | 33987 ft | 488 kts | 204° |
| 2026-04-25 20:15 | 14.00696 | -160.85414 | 33987 ft | 487 kts | 204° |
| 2026-04-25 20:15 | 13.94234 | -160.87634 | 33986 ft | 489 kts | 204° |
| 2026-04-25 20:16 | 13.87730 | -160.89868 | 33985 ft | 490 kts | 204° |
| 2026-04-25 20:16 | 13.81254 | -160.92088 | 33981 ft | 488 kts | 204° |
| 2026-04-25 20:17 | 13.74831 | -160.94290 | 33981 ft | 488 kts | 204° |
| 2026-04-25 20:17 | 13.68357 | -160.96510 | 33979 ft | 490 kts | 204° |
| 2026-04-25 20:18 | 13.61845 | -160.98740 | 33977 ft | 490 kts | 203° |
| 2026-04-25 20:18 | 13.55365 | -161.00957 | 33978 ft | 490 kts | 203° |
| 2026-04-25 20:19 | 13.48877 | -161.03177 | 33976 ft | 492 kts | 203° |
| 2026-04-25 20:19 | 13.42387 | -161.05396 | 33976 ft | 491 kts | 203° |
| 2026-04-25 20:20 | 13.35898 | -161.07611 | 33973 ft | 491 kts | 203° |
| 2026-04-25 20:20 | 13.29366 | -161.09843 | 33974 ft | 491 kts | 203° |
| 2026-04-25 20:21 | 13.22901 | -161.12048 | 33972 ft | 489 kts | 203° |
| 2026-04-25 20:21 | 13.16414 | -161.14261 | 33970 ft | 490 kts | 203° |
| 2026-04-25 20:22 | 13.11002 | -161.16107 | 33969 ft | 491 kts | 203° |
| 2026-04-25 20:22 | 13.03441 | -161.18684 | 33966 ft | 492 kts | 203° |
| 2026-04-25 20:23 | 12.96915 | -161.20906 | 33966 ft | 492 kts | 203° |
| 2026-04-25 20:23 | 12.90425 | -161.23114 | 33963 ft | 492 kts | 203° |
| 2026-04-25 20:24 | 12.83913 | -161.25328 | 33961 ft | 491 kts | 203° |
| 2026-04-25 20:24 | 12.77400 | -161.27544 | 33963 ft | 491 kts | 203° |
| 2026-04-25 20:25 | 12.70905 | -161.29750 | 33959 ft | 491 kts | 203° |
| 2026-04-25 20:25 | 12.64409 | -161.31957 | 33958 ft | 491 kts | 203° |
| 2026-04-25 20:26 | 12.57889 | -161.34169 | 33957 ft | 492 kts | 203° |
| 2026-04-25 20:26 | 12.51385 | -161.36375 | 33953 ft | 491 kts | 203° |
| 2026-04-25 20:27 | 12.44875 | -161.38582 | 33954 ft | 491 kts | 203° |
| 2026-04-25 20:27 | 12.38360 | -161.40790 | 33953 ft | 491 kts | 203° |
| 2026-04-25 20:28 | 12.31880 | -161.42986 | 33951 ft | 491 kts | 203° |
| 2026-04-25 20:28 | 12.25361 | -161.45192 | 33950 ft | 492 kts | 203° |
| 2026-04-25 20:29 | 12.18866 | -161.47389 | 33948 ft | 491 kts | 203° |
| 2026-04-25 20:29 | 12.12361 | -161.49589 | 33946 ft | 491 kts | 203° |
| 2026-04-25 20:30 | 12.05872 | -161.51782 | 33946 ft | 492 kts | 203° |
| 2026-04-25 20:30 | 11.99344 | -161.53987 | 33942 ft | 490 kts | 203° |
| 2026-04-25 20:31 | 11.92853 | -161.56178 | 33937 ft | 490 kts | 203° |
| 2026-04-25 20:31 | 11.86366 | -161.58369 | 33940 ft | 492 kts | 203° |
| 2026-04-25 20:32 | 11.79873 | -161.60559 | 33942 ft | 491 kts | 203° |
| 2026-04-25 20:32 | 11.73354 | -161.62756 | 33943 ft | 492 kts | 203° |
| 2026-04-25 20:33 | 11.66824 | -161.64958 | 33936 ft | 493 kts | 203° |
| 2026-04-25 20:33 | 11.61389 | -161.66789 | 33941 ft | 494 kts | 203° |
| 2026-04-25 20:34 | 11.53780 | -161.69350 | 33937 ft | 493 kts | 203° |
| 2026-04-25 20:34 | 11.47224 | -161.71555 | 33932 ft | 493 kts | 203° |
| 2026-04-25 20:35 | 11.40720 | -161.73743 | 33932 ft | 493 kts | 203° |
| 2026-04-25 20:35 | 11.34151 | -161.75951 | 33931 ft | 493 kts | 203° |
| 2026-04-25 20:36 | 11.27657 | -161.78133 | 33927 ft | 493 kts | 203° |
| 2026-04-25 20:36 | 11.21087 | -161.80339 | 33929 ft | 495 kts | 203° |
| 2026-04-25 20:37 | 11.14540 | -161.82536 | 33923 ft | 494 kts | 203° |
| 2026-04-25 20:37 | 11.07986 | -161.84735 | 33924 ft | 495 kts | 203° |
| 2026-04-25 20:38 | 11.01435 | -161.86932 | 33926 ft | 494 kts | 203° |
| 2026-04-25 20:38 | 10.94903 | -161.89121 | 33924 ft | 494 kts | 203° |
| 2026-04-25 20:39 | 10.88321 | -161.91327 | 33924 ft | 495 kts | 203° |
| 2026-04-25 20:39 | 10.82854 | -161.93158 | 33924 ft | 495 kts | 203° |
| 2026-04-25 20:40 | 10.75217 | -161.95715 | 33924 ft | 496 kts | 203° |
| 2026-04-25 20:40 | 10.68627 | -161.97919 | 33924 ft | 495 kts | 203° |
| 2026-04-25 20:41 | 10.62075 | -162.00110 | 33924 ft | 495 kts | 203° |
| 2026-04-25 20:41 | 10.55494 | -162.02310 | 33925 ft | 496 kts | 203° |
| 2026-04-25 20:42 | 10.48928 | -162.04504 | 33924 ft | 497 kts | 203° |
| 2026-04-25 20:42 | 10.42367 | -162.06694 | 33923 ft | 496 kts | 203° |
| 2026-04-25 20:43 | 10.35787 | -162.08891 | 33923 ft | 497 kts | 203° |
| 2026-04-25 20:43 | 10.29194 | -162.11092 | 33923 ft | 497 kts | 203° |
| 2026-04-25 20:44 | 10.22605 | -162.13289 | 33914 ft | 497 kts | 203° |
| 2026-04-25 20:44 | 10.15998 | -162.15491 | 33911 ft | 497 kts | 203° |
| 2026-04-25 20:45 | 10.09403 | -162.17690 | 33912 ft | 498 kts | 203° |
| 2026-04-25 20:45 | 10.02802 | -162.19888 | 33916 ft | 499 kts | 203° |
| 2026-04-25 20:46 | 9.96201 | -162.22086 | 33922 ft | 498 kts | 203° |
| 2026-04-25 20:46 | 9.89618 | -162.24277 | 33920 ft | 498 kts | 203° |
| 2026-04-25 20:47 | 9.82993 | -162.26480 | 33921 ft | 499 kts | 203° |
| 2026-04-25 20:47 | 9.76411 | -162.28668 | 33923 ft | 500 kts | 203° |
| 2026-04-25 20:48 | 9.69774 | -162.30876 | 33927 ft | 501 kts | 203° |
| 2026-04-25 20:48 | 9.63132 | -162.33081 | 33923 ft | 499 kts | 203° |
| 2026-04-25 20:49 | 9.56504 | -162.35283 | 33921 ft | 500 kts | 203° |
| 2026-04-25 20:49 | 9.49914 | -162.37471 | 33922 ft | 500 kts | 203° |
| 2026-04-25 20:50 | 9.43280 | -162.39673 | 33923 ft | 501 kts | 203° |
| 2026-04-25 20:50 | 9.36608 | -162.41885 | 33923 ft | 501 kts | 202° |
| 2026-04-25 20:51 | 9.29992 | -162.44078 | 33925 ft | 501 kts | 202° |
| 2026-04-25 20:51 | 9.23329 | -162.46287 | 33923 ft | 502 kts | 202° |
| 2026-04-25 20:52 | 9.17784 | -162.48125 | 33924 ft | 502 kts | 202° |
| 2026-04-25 20:52 | 9.10075 | -162.50676 | 33923 ft | 500 kts | 202° |
| 2026-04-25 20:53 | 9.03438 | -162.52875 | 33920 ft | 502 kts | 202° |
| 2026-04-25 20:53 | 8.96744 | -162.55090 | 33918 ft | 503 kts | 202° |
| 2026-04-25 20:54 | 8.90083 | -162.57292 | 33913 ft | 501 kts | 202° |
| 2026-04-25 20:54 | 8.83489 | -162.59473 | 33911 ft | 501 kts | 202° |
| 2026-04-25 20:55 | 8.76841 | -162.61670 | 33912 ft | 502 kts | 202° |
| 2026-04-25 20:55 | 8.70177 | -162.63873 | 33910 ft | 502 kts | 202° |
| 2026-04-25 20:56 | 8.63528 | -162.66067 | 33908 ft | 501 kts | 202° |
| 2026-04-25 20:56 | 8.56895 | -162.68259 | 33909 ft | 502 kts | 202° |
| 2026-04-25 20:57 | 8.50213 | -162.70464 | 33906 ft | 501 kts | 202° |
| 2026-04-25 20:57 | 8.43560 | -162.72659 | 33910 ft | 502 kts | 202° |
| 2026-04-25 20:58 | 8.36938 | -162.74843 | 33906 ft | 501 kts | 202° |
| 2026-04-25 20:58 | 8.30313 | -162.77026 | 33905 ft | 501 kts | 202° |
| 2026-04-25 20:59 | 8.23637 | -162.79227 | 33903 ft | 501 kts | 202° |
| 2026-04-25 20:59 | 8.17006 | -162.81410 | 33903 ft | 500 kts | 202° |
| 2026-04-25 21:00 | 8.11493 | -162.83226 | 33905 ft | 501 kts | 202° |
| 2026-04-25 21:01 | 8.00434 | -162.86868 | 33903 ft | 500 kts | 202° |
| 2026-04-25 21:01 | 7.93779 | -162.89056 | 33899 ft | 500 kts | 201° |
| 2026-04-25 21:02 | 7.87153 | -162.91237 | 33899 ft | 500 kts | 202° |
| 2026-04-25 21:02 | 7.80547 | -162.93410 | 33899 ft | 501 kts | 201° |
| 2026-04-25 21:03 | 7.73867 | -162.95605 | 33898 ft | 501 kts | 201° |
| 2026-04-25 21:03 | 7.67247 | -162.97780 | 33901 ft | 499 kts | 201° |
| 2026-04-25 21:04 | 7.60670 | -162.99940 | 33903 ft | 498 kts | 201° |
| 2026-04-25 21:04 | 7.54037 | -163.02119 | 33903 ft | 499 kts | 201° |
| 2026-04-25 21:05 | 7.47413 | -163.04295 | 33902 ft | 500 kts | 201° |
| 2026-04-25 21:05 | 7.40822 | -163.06456 | 33902 ft | 499 kts | 201° |
| 2026-04-25 21:06 | 7.34181 | -163.08635 | 33903 ft | 499 kts | 201° |
| 2026-04-25 21:06 | 7.27570 | -163.10805 | 33899 ft | 499 kts | 201° |
| 2026-04-25 21:07 | 7.20956 | -163.12972 | 33898 ft | 499 kts | 201° |
| 2026-04-25 21:07 | 7.14328 | -163.15146 | 33893 ft | 500 kts | 201° |
| 2026-04-25 21:08 | 7.07675 | -163.17325 | 33880 ft | 500 kts | 201° |
| 2026-04-25 21:08 | 7.01047 | -163.19496 | 33881 ft | 500 kts | 201° |
| 2026-04-25 21:09 | 6.91119 | -163.22748 | 33883 ft | 500 kts | 201° |
| 2026-04-25 21:09 | 6.84451 | -163.24930 | 33882 ft | 500 kts | 201° |
| 2026-04-25 21:10 | 6.77838 | -163.27094 | 33882 ft | 498 kts | 201° |
| 2026-04-25 21:10 | 6.71241 | -163.29251 | 33882 ft | 498 kts | 201° |
| 2026-04-25 21:11 | 6.64618 | -163.31418 | 33883 ft | 499 kts | 201° |
| 2026-04-25 21:11 | 6.58031 | -163.33572 | 33883 ft | 499 kts | 201° |
| 2026-04-25 21:12 | 6.51408 | -163.35736 | 33883 ft | 499 kts | 201° |
| 2026-04-25 21:12 | 6.45858 | -163.37550 | 33883 ft | 499 kts | 201° |
| 2026-04-25 21:13 | 6.38159 | -163.40065 | 33883 ft | 497 kts | 200° |
| 2026-04-25 21:13 | 6.31575 | -163.42217 | 33883 ft | 498 kts | 200° |
| 2026-04-25 21:14 | 6.24930 | -163.44385 | 33884 ft | 497 kts | 200° |
| 2026-04-25 21:14 | 6.18354 | -163.46532 | 33886 ft | 498 kts | 200° |
| 2026-04-25 21:15 | 6.11703 | -163.48703 | 33884 ft | 499 kts | 200° |
| 2026-04-25 21:15 | 6.05105 | -163.50854 | 33884 ft | 498 kts | 200° |
| 2026-04-25 21:16 | 5.98484 | -163.53015 | 33883 ft | 498 kts | 200° |
| 2026-04-25 21:16 | 5.91908 | -163.55159 | 33882 ft | 497 kts | 200° |
| 2026-04-25 21:17 | 5.85313 | -163.57309 | 33882 ft | 497 kts | 200° |
| 2026-04-25 21:17 | 5.78727 | -163.59456 | 33882 ft | 499 kts | 200° |
| 2026-04-25 21:18 | 5.72058 | -163.61629 | 33884 ft | 499 kts | 200° |
| 2026-04-25 21:18 | 5.65479 | -163.63771 | 33885 ft | 498 kts | 200° |
| 2026-04-25 21:19 | 5.58882 | -163.65920 | 33888 ft | 499 kts | 200° |
| 2026-04-25 21:19 | 5.52234 | -163.68085 | 33887 ft | 498 kts | 200° |
| 2026-04-25 21:20 | 5.46761 | -163.69867 | 33885 ft | 497 kts | 200° |
| 2026-04-25 21:20 | 5.39011 | -163.72389 | 33889 ft | 499 kts | 200° |
| 2026-04-25 21:21 | 5.32380 | -163.74547 | 33883 ft | 499 kts | 200° |
| 2026-04-25 21:21 | 5.25783 | -163.76692 | 33874 ft | 500 kts | 200° |
| 2026-04-25 21:22 | 5.19108 | -163.78863 | 33870 ft | 501 kts | 200° |
| 2026-04-25 21:22 | 5.12514 | -163.81007 | 33869 ft | 498 kts | 200° |
| 2026-04-25 21:23 | 5.05872 | -163.83166 | 33866 ft | 499 kts | 200° |
| 2026-04-25 21:23 | 4.99252 | -163.85318 | 33866 ft | 500 kts | 200° |
| 2026-04-25 21:24 | 4.92601 | -163.87480 | 33866 ft | 500 kts | 200° |
| 2026-04-25 21:24 | 4.86001 | -163.89624 | 33867 ft | 501 kts | 200° |
| 2026-04-25 21:25 | 4.79320 | -163.91794 | 33868 ft | 502 kts | 200° |
| 2026-04-25 21:25 | 4.72670 | -163.93953 | 33869 ft | 501 kts | 200° |
| 2026-04-25 21:26 | 4.66008 | -163.96117 | 33873 ft | 500 kts | 200° |
| 2026-04-25 21:26 | 4.59390 | -163.98265 | 33880 ft | 501 kts | 200° |
| 2026-04-25 21:27 | 4.52756 | -164.00418 | 33883 ft | 500 kts | 200° |
| 2026-04-25 21:27 | 4.46112 | -164.02574 | 33883 ft | 501 kts | 200° |
| 2026-04-25 21:28 | 4.39440 | -164.04739 | 33882 ft | 502 kts | 200° |
| 2026-04-25 21:28 | 4.32747 | -164.06909 | 33883 ft | 502 kts | 200° |
| 2026-04-25 21:29 | 4.26098 | -164.09067 | 33883 ft | 502 kts | 199° |
| 2026-04-25 21:29 | 4.19432 | -164.11227 | 33883 ft | 501 kts | 200° |
| 2026-04-25 21:30 | 4.12770 | -164.13386 | 33883 ft | 502 kts | 200° |
| 2026-04-25 21:30 | 4.07238 | -164.15181 | 33883 ft | 503 kts | 199° |
| 2026-04-25 21:31 | 3.99428 | -164.17711 | 33883 ft | 501 kts | 199° |
| 2026-04-25 21:31 | 3.92755 | -164.19873 | 33883 ft | 503 kts | 200° |
| 2026-04-25 21:32 | 3.86098 | -164.22029 | 33883 ft | 502 kts | 200° |
| 2026-04-25 21:32 | 3.79456 | -164.24182 | 33883 ft | 501 kts | 200° |
| 2026-04-25 21:33 | 3.72804 | -164.26337 | 33883 ft | 502 kts | 200° |
| 2026-04-25 21:33 | 3.66091 | -164.28510 | 33883 ft | 502 kts | 200° |
| 2026-04-25 21:34 | 3.59480 | -164.30650 | 33878 ft | 501 kts | 200° |
| 2026-04-25 21:34 | 3.52784 | -164.32817 | 33868 ft | 503 kts | 199° |
| 2026-04-25 21:35 | 3.46105 | -164.34979 | 33865 ft | 503 kts | 200° |
| 2026-04-25 21:35 | 3.39445 | -164.37134 | 33863 ft | 501 kts | 200° |
| 2026-04-25 21:36 | 3.32792 | -164.39287 | 33862 ft | 502 kts | 200° |
| 2026-04-25 21:36 | 3.26163 | -164.41432 | 33739 ft | 499 kts | 200° |
| 2026-04-25 21:37 | 3.22829 | -164.42511 | 33438 ft | 506 kts | 200° |
| 2026-04-25 21:37 | 3.20555 | -164.43247 | 33504 ft | 507 kts | 200° |
| 2026-04-25 21:37 | 3.16112 | -164.44682 | 34094 ft | 502 kts | 200° |
| 2026-04-25 21:37 | 3.12788 | -164.45756 | 34492 ft | 499 kts | 200° |
| 2026-04-25 21:38 | 3.09479 | -164.46828 | 34757 ft | 499 kts | 200° |
| 2026-04-25 21:38 | 3.06136 | -164.47908 | 34961 ft | 499 kts | 200° |
| 2026-04-25 21:38 | 3.02834 | -164.48976 | 35193 ft | 499 kts | 200° |
| 2026-04-25 21:38 | 2.99514 | -164.50049 | 35414 ft | 499 kts | 200° |
| 2026-04-25 21:39 | 2.96230 | -164.51112 | 35635 ft | 499 kts | 200° |
| 2026-04-25 21:39 | 2.92909 | -164.52185 | 35819 ft | 498 kts | 200° |
| 2026-04-25 21:39 | 2.86258 | -164.54335 | 35861 ft | 501 kts | 200° |
| 2026-04-25 21:40 | 2.79638 | -164.56474 | 35862 ft | 498 kts | 200° |
| 2026-04-25 21:40 | 2.73061 | -164.58600 | 35862 ft | 497 kts | 200° |
| 2026-04-25 21:41 | 2.66406 | -164.60751 | 35861 ft | 499 kts | 200° |
| 2026-04-25 21:41 | 2.59799 | -164.62886 | 35861 ft | 499 kts | 200° |
| 2026-04-25 21:42 | 2.53183 | -164.65022 | 35861 ft | 498 kts | 200° |
| 2026-04-25 21:42 | 2.46593 | -164.67151 | 35861 ft | 498 kts | 200° |
| 2026-04-25 21:43 | 2.39945 | -164.69298 | 35860 ft | 498 kts | 200° |
| 2026-04-25 21:43 | 2.33379 | -164.71417 | 35862 ft | 497 kts | 200° |
| 2026-04-25 21:44 | 2.26759 | -164.73555 | 35863 ft | 497 kts | 200° |
| 2026-04-25 21:45 | 2.16867 | -164.76749 | 35863 ft | 498 kts | 201° |
| 2026-04-25 21:45 | 2.10234 | -164.78889 | 35861 ft | 497 kts | 201° |
| 2026-04-25 21:46 | 2.03614 | -164.81026 | 35863 ft | 497 kts | 201° |
| 2026-04-25 21:46 | 1.97008 | -164.83159 | 35867 ft | 498 kts | 201° |
| 2026-04-25 21:47 | 1.90379 | -164.85298 | 35868 ft | 499 kts | 201° |
| 2026-04-25 21:47 | 1.83769 | -164.87431 | 35876 ft | 497 kts | 201° |
| 2026-04-25 21:48 | 1.77153 | -164.89565 | 35880 ft | 498 kts | 201° |
| 2026-04-25 21:48 | 1.70550 | -164.91696 | 35874 ft | 498 kts | 201° |
| 2026-04-25 21:49 | 1.63942 | -164.93828 | 35868 ft | 498 kts | 201° |
| 2026-04-25 21:49 | 1.57306 | -164.95969 | 35864 ft | 498 kts | 201° |
| 2026-04-25 21:50 | 1.50709 | -164.98097 | 35866 ft | 498 kts | 201° |
| 2026-04-25 21:50 | 1.44093 | -165.00233 | 35862 ft | 499 kts | 201° |
| 2026-04-25 21:51 | 1.37469 | -165.02371 | 35863 ft | 498 kts | 201° |
| 2026-04-25 21:51 | 1.30845 | -165.04507 | 35863 ft | 498 kts | 201° |
| 2026-04-25 21:52 | 1.24222 | -165.06644 | 35864 ft | 497 kts | 201° |
| 2026-04-25 21:52 | 1.17639 | -165.08766 | 35863 ft | 498 kts | 201° |
| 2026-04-25 21:53 | 1.11028 | -165.10896 | 35863 ft | 499 kts | 201° |
| 2026-04-25 21:53 | 1.04396 | -165.13032 | 35863 ft | 499 kts | 201° |
| 2026-04-25 21:54 | 0.97765 | -165.15170 | 35863 ft | 499 kts | 201° |
| 2026-04-25 21:55 | 0.81824 | -165.20309 | 35864 ft | 498 kts | 201° |
| 2026-04-25 21:56 | 0.75193 | -165.22447 | 35863 ft | 499 kts | 201° |
| 2026-04-25 21:56 | 0.68560 | -165.24585 | 35863 ft | 500 kts | 201° |
| 2026-04-25 21:57 | 0.61945 | -165.26717 | 35863 ft | 499 kts | 201° |
| 2026-04-25 21:57 | 0.55287 | -165.28863 | 35864 ft | 499 kts | 201° |
| 2026-04-25 21:58 | 0.48679 | -165.30995 | 35864 ft | 499 kts | 201° |
| 2026-04-25 21:58 | 0.42081 | -165.33124 | 35863 ft | 498 kts | 201° |
| 2026-04-25 21:59 | 0.35444 | -165.35265 | 35862 ft | 499 kts | 201° |
| 2026-04-25 21:59 | 0.28811 | -165.37401 | 35864 ft | 498 kts | 201° |
| 2026-04-25 22:00 | 0.18891 | -165.40596 | 35863 ft | 500 kts | 201° |
| 2026-04-25 22:00 | 0.12241 | -165.42740 | 35863 ft | 500 kts | 201° |
| 2026-04-25 22:01 | 0.05616 | -165.44875 | 35863 ft | 499 kts | 201° |
| 2026-04-25 22:01 | 0.00101 | -165.46652 | 35864 ft | 499 kts | 201° |
| 2026-04-25 22:02 | -0.07628 | -165.49142 | 35865 ft | 499 kts | 201° |
| 2026-04-25 22:02 | -0.14301 | -165.51294 | 35862 ft | 499 kts | 201° |
| 2026-04-25 22:03 | -0.20907 | -165.53422 | 35864 ft | 498 kts | 201° |
| 2026-04-25 22:03 | -0.27525 | -165.55556 | 35863 ft | 500 kts | 201° |
| 2026-04-25 22:04 | -0.34171 | -165.57698 | 35862 ft | 500 kts | 201° |
| 2026-04-25 22:04 | -0.40791 | -165.59831 | 35863 ft | 499 kts | 201° |
| 2026-04-25 22:05 | -0.47428 | -165.61972 | 35863 ft | 499 kts | 200° |
| 2026-04-25 22:05 | -0.54046 | -165.64105 | 35857 ft | 499 kts | 200° |
| 2026-04-25 22:06 | -0.60679 | -165.66243 | 35857 ft | 499 kts | 200° |
| 2026-04-25 22:06 | -0.67324 | -165.68385 | 35850 ft | 499 kts | 200° |
| 2026-04-25 22:07 | -0.72815 | -165.70155 | 35848 ft | 499 kts | 200° |
| 2026-04-25 22:07 | -0.80563 | -165.72653 | 35847 ft | 500 kts | 200° |
| 2026-04-25 22:08 | -0.87182 | -165.74786 | 35850 ft | 499 kts | 200° |
| 2026-04-25 22:08 | -0.93810 | -165.76924 | 35856 ft | 499 kts | 200° |
| 2026-04-25 22:09 | -1.00435 | -165.79060 | 35863 ft | 499 kts | 200° |
| 2026-04-25 22:09 | -1.07039 | -165.81189 | 35863 ft | 498 kts | 200° |
| 2026-04-25 22:10 | -1.13638 | -165.83318 | 35862 ft | 499 kts | 200° |
| 2026-04-25 22:10 | -1.20263 | -165.85454 | 35862 ft | 499 kts | 200° |
| 2026-04-25 22:11 | -1.26916 | -165.87599 | 35863 ft | 499 kts | 200° |
| 2026-04-25 22:11 | -1.33537 | -165.89734 | 35861 ft | 500 kts | 200° |
| 2026-04-25 22:12 | -1.40153 | -165.91867 | 35864 ft | 500 kts | 200° |
| 2026-04-25 22:12 | -1.45671 | -165.93646 | 35862 ft | 499 kts | 200° |
| 2026-04-25 22:13 | -1.53382 | -165.96133 | 35863 ft | 497 kts | 200° |
| 2026-04-25 22:13 | -1.60014 | -165.98274 | 35863 ft | 498 kts | 200° |
| 2026-04-25 22:14 | -1.66643 | -166.00412 | 35864 ft | 498 kts | 200° |
| 2026-04-25 22:14 | -1.73246 | -166.02544 | 35863 ft | 499 kts | 200° |
| 2026-04-25 22:15 | -1.79840 | -166.04671 | 35863 ft | 499 kts | 200° |
| 2026-04-25 22:16 | -1.89794 | -166.07881 | 35864 ft | 498 kts | 200° |
| 2026-04-25 22:16 | -1.96410 | -166.10016 | 35863 ft | 498 kts | 200° |
| 2026-04-25 22:17 | -2.02994 | -166.12141 | 35864 ft | 497 kts | 200° |
| 2026-04-25 22:17 | -2.09626 | -166.14282 | 35863 ft | 497 kts | 200° |
| 2026-04-25 22:18 | -2.16218 | -166.16411 | 35863 ft | 498 kts | 200° |
| 2026-04-25 22:18 | -2.22786 | -166.18530 | 35863 ft | 498 kts | 199° |
| 2026-04-25 22:19 | -2.29443 | -166.20680 | 35862 ft | 498 kts | 199° |
| 2026-04-25 22:19 | -2.36051 | -166.22813 | 35857 ft | 498 kts | 199° |
| 2026-04-25 22:20 | -2.42607 | -166.24930 | 35847 ft | 496 kts | 199° |
| 2026-04-25 22:20 | -2.49224 | -166.27066 | 35843 ft | 497 kts | 199° |
| 2026-04-25 22:21 | -2.55818 | -166.29196 | 35842 ft | 497 kts | 199° |
| 2026-04-25 22:21 | -2.62413 | -166.31326 | 35843 ft | 497 kts | 199° |
| 2026-04-25 22:22 | -2.69001 | -166.33455 | 35843 ft | 498 kts | 199° |
| 2026-04-25 22:22 | -2.75638 | -166.35603 | 35843 ft | 498 kts | 199° |
| 2026-04-25 22:23 | -2.82160 | -166.37712 | 35842 ft | 492 kts | 199° |
| 2026-04-25 22:23 | -2.88722 | -166.39833 | 35843 ft | 492 kts | 199° |
| 2026-04-25 22:24 | -2.95257 | -166.41945 | 35842 ft | 495 kts | 199° |
| 2026-04-25 22:24 | -3.01815 | -166.44061 | 35846 ft | 493 kts | 199° |
| 2026-04-25 22:25 | -3.08367 | -166.46178 | 35851 ft | 494 kts | 199° |
| 2026-04-25 22:25 | -3.14914 | -166.48297 | 35857 ft | 494 kts | 199° |
| 2026-04-25 22:26 | -3.21497 | -166.50427 | 35861 ft | 494 kts | 199° |
| 2026-04-25 22:26 | -3.28036 | -166.52542 | 35864 ft | 494 kts | 199° |
| 2026-04-25 22:27 | -3.34573 | -166.54657 | 35863 ft | 493 kts | 198° |
| 2026-04-25 22:27 | -3.41135 | -166.56779 | 35862 ft | 492 kts | 198° |
| 2026-04-25 22:28 | -3.47676 | -166.58896 | 35864 ft | 493 kts | 198° |
| 2026-04-25 22:28 | -3.54204 | -166.61009 | 35862 ft | 493 kts | 198° |
| 2026-04-25 22:29 | -3.60770 | -166.63133 | 35864 ft | 494 kts | 198° |
| 2026-04-25 22:29 | -3.67318 | -166.65253 | 35863 ft | 493 kts | 198° |
| 2026-04-25 22:30 | -3.77133 | -166.68431 | 35862 ft | 494 kts | 198° |
| 2026-04-25 22:30 | -3.82596 | -166.70200 | 35862 ft | 494 kts | 198° |
| 2026-04-25 22:31 | -3.90231 | -166.72673 | 35862 ft | 494 kts | 198° |
| 2026-04-25 22:31 | -3.96800 | -166.74800 | 35862 ft | 494 kts | 198° |
| 2026-04-25 22:32 | -4.03312 | -166.76910 | 35860 ft | 493 kts | 198° |
| 2026-04-25 22:32 | -4.09862 | -166.79031 | 35861 ft | 494 kts | 198° |
| 2026-04-25 22:33 | -4.16417 | -166.81155 | 35862 ft | 494 kts | 198° |
| 2026-04-25 22:33 | -4.22975 | -166.83283 | 35858 ft | 494 kts | 198° |
| 2026-04-25 22:34 | -4.29530 | -166.85408 | 35851 ft | 495 kts | 198° |
| 2026-04-25 22:34 | -4.36103 | -166.87540 | 35850 ft | 495 kts | 198° |
| 2026-04-25 22:35 | -4.42680 | -166.89671 | 35851 ft | 495 kts | 198° |
| 2026-04-25 22:35 | -4.49221 | -166.91792 | 35853 ft | 496 kts | 198° |
| 2026-04-25 22:36 | -4.55812 | -166.93932 | 35853 ft | 494 kts | 198° |
| 2026-04-25 22:36 | -4.62369 | -166.96060 | 35850 ft | 495 kts | 198° |
| 2026-04-25 22:37 | -4.68983 | -166.98206 | 35842 ft | 499 kts | 198° |
| 2026-04-25 22:37 | -4.75607 | -167.00357 | 35848 ft | 498 kts | 198° |
| 2026-04-25 22:38 | -4.82148 | -167.02480 | 35860 ft | 494 kts | 198° |
| 2026-04-25 22:38 | -4.88721 | -167.04616 | 35859 ft | 497 kts | 198° |
| 2026-04-25 22:39 | -4.95366 | -167.06773 | 35860 ft | 498 kts | 198° |
| 2026-04-25 22:39 | -5.01914 | -167.09004 | 35864 ft | 494 kts | 201° |
| 2026-04-25 22:40 | -5.08278 | -167.11566 | 35859 ft | 496 kts | 202° |
| 2026-04-25 22:40 | -5.14724 | -167.14227 | 35862 ft | 498 kts | 202° |
| 2026-04-25 22:41 | -5.21110 | -167.16840 | 35863 ft | 498 kts | 202° |
| 2026-04-25 22:41 | -5.27564 | -167.19464 | 35862 ft | 499 kts | 202° |
| 2026-04-25 22:42 | -5.34022 | -167.22086 | 35863 ft | 496 kts | 202° |
| 2026-04-25 22:42 | -5.40431 | -167.24687 | 35863 ft | 495 kts | 201° |
| 2026-04-25 22:43 | -5.46804 | -167.27272 | 35862 ft | 495 kts | 201° |
| 2026-04-25 22:43 | -5.53208 | -167.29875 | 35862 ft | 497 kts | 201° |
| 2026-04-25 22:44 | -5.59672 | -167.32501 | 35863 ft | 503 kts | 201° |
| 2026-04-25 22:44 | -5.66208 | -167.35159 | 35863 ft | 502 kts | 201° |
| 2026-04-25 22:45 | -5.72635 | -167.37773 | 35862 ft | 500 kts | 201° |
| 2026-04-25 22:45 | -5.79152 | -167.40422 | 35866 ft | 503 kts | 201° |
| 2026-04-25 22:46 | -5.85632 | -167.43059 | 35862 ft | 501 kts | 201° |
| 2026-04-25 22:46 | -5.92101 | -167.45692 | 35866 ft | 501 kts | 201° |
| 2026-04-25 22:47 | -5.98595 | -167.48335 | 35861 ft | 502 kts | 201° |
| 2026-04-25 22:47 | -6.05082 | -167.50977 | 35860 ft | 502 kts | 201° |
| 2026-04-25 22:48 | -6.11575 | -167.53621 | 35863 ft | 502 kts | 201° |
| 2026-04-25 22:48 | -6.18063 | -167.56264 | 35860 ft | 501 kts | 201° |
| 2026-04-25 22:49 | -6.24572 | -167.58916 | 35861 ft | 502 kts | 200° |
| 2026-04-25 22:49 | -6.31025 | -167.61546 | 35860 ft | 503 kts | 200° |
| 2026-04-25 22:50 | -6.37563 | -167.64210 | 35862 ft | 505 kts | 200° |
| 2026-04-25 22:50 | -6.44088 | -167.66872 | 35860 ft | 504 kts | 200° |
| 2026-04-25 22:51 | -6.50561 | -167.69513 | 35861 ft | 504 kts | 201° |
| 2026-04-25 22:51 | -6.57090 | -167.72176 | 35858 ft | 505 kts | 200° |
| 2026-04-25 22:52 | -6.63611 | -167.74838 | 35853 ft | 504 kts | 200° |
| 2026-04-25 22:52 | -6.69057 | -167.77061 | 35852 ft | 506 kts | 200° |
| 2026-04-25 22:53 | -6.76711 | -167.80186 | 35843 ft | 508 kts | 200° |
| 2026-04-25 22:53 | -6.83263 | -167.82863 | 35842 ft | 508 kts | 200° |
| 2026-04-25 22:54 | -6.89788 | -167.85529 | 35842 ft | 508 kts | 200° |
| 2026-04-25 22:54 | -6.96398 | -167.88231 | 35851 ft | 508 kts | 200° |
| 2026-04-25 22:55 | -7.02943 | -167.90906 | 35858 ft | 507 kts | 200° |
| 2026-04-25 22:55 | -7.09484 | -167.93582 | 35861 ft | 508 kts | 200° |
| 2026-04-25 22:56 | -7.16023 | -167.96258 | 35860 ft | 508 kts | 200° |
| 2026-04-25 22:56 | -7.22591 | -167.98946 | 35861 ft | 508 kts | 200° |
| 2026-04-25 22:57 | -7.29158 | -168.01633 | 35862 ft | 508 kts | 200° |
| 2026-04-25 22:57 | -7.35727 | -168.04323 | 35862 ft | 506 kts | 200° |
| 2026-04-25 22:58 | -7.42259 | -168.06999 | 35862 ft | 506 kts | 200° |
| 2026-04-25 22:58 | -7.48783 | -168.09672 | 35862 ft | 506 kts | 200° |
| 2026-04-25 22:59 | -7.55327 | -168.12355 | 35862 ft | 506 kts | 200° |
| 2026-04-25 22:59 | -7.61859 | -168.15033 | 35862 ft | 506 kts | 200° |
| 2026-04-25 23:00 | -7.68396 | -168.17714 | 35862 ft | 506 kts | 200° |
| 2026-04-25 23:00 | -7.74919 | -168.20390 | 35862 ft | 505 kts | 200° |
| 2026-04-25 23:01 | -7.81429 | -168.23062 | 35862 ft | 504 kts | 200° |
| 2026-04-25 23:01 | -7.87913 | -168.25725 | 35863 ft | 505 kts | 200° |
| 2026-04-25 23:02 | -7.94465 | -168.28415 | 35862 ft | 506 kts | 200° |
| 2026-04-25 23:02 | -8.00966 | -168.31087 | 35862 ft | 504 kts | 200° |
| 2026-04-25 23:03 | -8.07487 | -168.33766 | 35863 ft | 504 kts | 200° |
| 2026-04-25 23:03 | -8.14001 | -168.36444 | 35863 ft | 505 kts | 200° |
| 2026-04-25 23:04 | -8.19418 | -168.38673 | 35862 ft | 505 kts | 200° |
| 2026-04-25 23:04 | -8.27005 | -168.41795 | 35862 ft | 505 kts | 200° |
| 2026-04-25 23:05 | -8.33542 | -168.44484 | 35863 ft | 504 kts | 200° |
| 2026-04-25 23:05 | -8.40067 | -168.47171 | 35863 ft | 504 kts | 200° |
| 2026-04-25 23:06 | -8.46552 | -168.49841 | 35862 ft | 505 kts | 200° |
| 2026-04-25 23:06 | -8.53101 | -168.52541 | 35862 ft | 505 kts | 200° |
| 2026-04-25 23:07 | -8.59587 | -168.55214 | 35862 ft | 505 kts | 200° |
| 2026-04-25 23:07 | -8.66146 | -168.57918 | 35863 ft | 505 kts | 200° |
| 2026-04-25 23:08 | -8.72632 | -168.60594 | 35863 ft | 504 kts | 200° |
| 2026-04-25 23:08 | -8.79172 | -168.63292 | 35861 ft | 505 kts | 200° |
| 2026-04-25 23:09 | -8.85684 | -168.65981 | 35858 ft | 504 kts | 200° |
| 2026-04-25 23:09 | -8.92183 | -168.68665 | 35854 ft | 504 kts | 200° |
| 2026-04-25 23:10 | -8.98712 | -168.71361 | 35848 ft | 505 kts | 200° |
| 2026-04-25 23:10 | -9.05205 | -168.74045 | 35847 ft | 505 kts | 200° |
| 2026-04-25 23:11 | -9.11734 | -168.76744 | 35848 ft | 505 kts | 200° |
| 2026-04-25 23:11 | -9.18250 | -168.79439 | 35847 ft | 507 kts | 200° |
| 2026-04-25 23:12 | -9.24807 | -168.82152 | 35848 ft | 506 kts | 200° |
| 2026-04-25 23:12 | -9.31315 | -168.84847 | 35855 ft | 506 kts | 200° |
| 2026-04-25 23:13 | -9.37847 | -168.87552 | 35861 ft | 505 kts | 200° |
| 2026-04-25 23:13 | -9.44368 | -168.90253 | 35862 ft | 506 kts | 200° |
| 2026-04-25 23:14 | -9.50883 | -168.92952 | 35862 ft | 506 kts | 200° |
| 2026-04-25 23:14 | -9.57424 | -168.95665 | 35861 ft | 506 kts | 200° |
| 2026-04-25 23:15 | -9.63980 | -168.98384 | 35863 ft | 508 kts | 200° |
| 2026-04-25 23:15 | -9.70536 | -169.01105 | 35862 ft | 507 kts | 200° |
| 2026-04-25 23:16 | -9.77060 | -169.03813 | 35862 ft | 507 kts | 200° |
| 2026-04-25 23:16 | -9.83630 | -169.06541 | 35862 ft | 508 kts | 200° |
| 2026-04-25 23:17 | -9.90216 | -169.09277 | 35863 ft | 510 kts | 200° |
| 2026-04-25 23:17 | -9.96777 | -169.12004 | 35862 ft | 508 kts | 200° |
| 2026-04-25 23:18 | -10.03359 | -169.14629 | 35862 ft | 507 kts | 198° |
| 2026-04-25 23:18 | -10.10037 | -169.17035 | 35862 ft | 507 kts | 197° |
| 2026-04-25 23:19 | -10.16709 | -169.19417 | 35862 ft | 507 kts | 197° |
| 2026-04-25 23:19 | -10.23372 | -169.21815 | 35862 ft | 508 kts | 197° |
| 2026-04-25 23:20 | -10.30011 | -169.24217 | 35862 ft | 508 kts | 197° |
| 2026-04-25 23:20 | -10.36700 | -169.26640 | 35862 ft | 507 kts | 198° |
| 2026-04-25 23:21 | -10.43346 | -169.29050 | 35862 ft | 507 kts | 198° |
| 2026-04-25 23:21 | -10.50027 | -169.31471 | 35862 ft | 507 kts | 198° |
| 2026-04-25 23:22 | -10.56683 | -169.33887 | 35862 ft | 506 kts | 198° |
| 2026-04-25 23:23 | -10.66641 | -169.37500 | 35862 ft | 508 kts | 198° |
| 2026-04-25 23:23 | -10.73332 | -169.39929 | 35862 ft | 507 kts | 198° |
| 2026-04-25 23:24 | -10.79958 | -169.42335 | 35862 ft | 508 kts | 198° |
| 2026-04-25 23:24 | -10.86645 | -169.44766 | 35862 ft | 508 kts | 198° |
| 2026-04-25 23:25 | -10.93338 | -169.47201 | 35862 ft | 506 kts | 198° |
| 2026-04-25 23:25 | -10.99932 | -169.49600 | 35862 ft | 506 kts | 198° |
| 2026-04-25 23:26 | -11.06615 | -169.52033 | 35862 ft | 507 kts | 198° |
| 2026-04-25 23:26 | -11.13271 | -169.54456 | 35864 ft | 506 kts | 198° |
| 2026-04-25 23:27 | -11.19918 | -169.56877 | 35863 ft | 507 kts | 198° |
| 2026-04-25 23:27 | -11.26547 | -169.59294 | 35863 ft | 508 kts | 198° |
| 2026-04-25 23:28 | -11.33206 | -169.61723 | 35862 ft | 505 kts | 198° |
| 2026-04-25 23:28 | -11.39861 | -169.64151 | 35864 ft | 507 kts | 198° |
| 2026-04-25 23:29 | -11.46507 | -169.66576 | 35863 ft | 506 kts | 198° |
| 2026-04-25 23:29 | -11.53136 | -169.68997 | 35865 ft | 505 kts | 198° |
| 2026-04-25 23:30 | -11.59745 | -169.71413 | 35867 ft | 507 kts | 198° |
| 2026-04-25 23:30 | -11.66412 | -169.73850 | 35869 ft | 506 kts | 198° |
| 2026-04-25 23:31 | -11.73034 | -169.76273 | 35873 ft | 506 kts | 198° |
| 2026-04-25 23:31 | -11.79653 | -169.78694 | 35879 ft | 506 kts | 198° |
| 2026-04-25 23:32 | -11.86287 | -169.81123 | 35880 ft | 505 kts | 198° |
| 2026-04-25 23:32 | -11.92924 | -169.83556 | 35877 ft | 505 kts | 198° |
| 2026-04-25 23:33 | -11.99575 | -169.85994 | 35869 ft | 505 kts | 198° |
| 2026-04-25 23:33 | -12.06205 | -169.88425 | 35866 ft | 505 kts | 198° |
| 2026-04-25 23:34 | -12.12852 | -169.90863 | 35869 ft | 506 kts | 198° |
| 2026-04-25 23:34 | -12.19463 | -169.93291 | 35865 ft | 505 kts | 198° |
| 2026-04-25 23:35 | -12.26102 | -169.95729 | 35866 ft | 505 kts | 199° |
| 2026-04-25 23:35 | -12.32693 | -169.98151 | 35871 ft | 506 kts | 199° |
| 2026-04-25 23:36 | -12.39330 | -170.00592 | 35865 ft | 505 kts | 198° |
| 2026-04-25 23:36 | -12.45981 | -170.03040 | 35869 ft | 505 kts | 198° |
| 2026-04-25 23:37 | -12.52601 | -170.05475 | 35871 ft | 505 kts | 198° |
| 2026-04-25 23:37 | -12.59234 | -170.07918 | 35071 ft | 517 kts | 199° |
| 2026-04-25 23:37 | -12.62647 | -170.09175 | 34307 ft | 518 kts | 199° |
| 2026-04-25 23:38 | -12.66010 | -170.10416 | 33556 ft | 513 kts | 199° |
| 2026-04-25 23:38 | -12.69378 | -170.11658 | 32804 ft | 512 kts | 199° |
| 2026-04-25 23:38 | -12.72727 | -170.12894 | 32135 ft | 518 kts | 199° |
| 2026-04-25 23:38 | -12.76136 | -170.14191 | 31466 ft | 525 kts | 201° |
| 2026-04-25 23:39 | -12.79498 | -170.15755 | 30798 ft | 529 kts | 205° |
| 2026-04-25 23:39 | -12.82789 | -170.17490 | 30130 ft | 529 kts | 207° |
| 2026-04-25 23:39 | -12.85975 | -170.19252 | 29478 ft | 527 kts | 207° |
| 2026-04-25 23:39 | -12.89202 | -170.21053 | 28816 ft | 528 kts | 207° |
| 2026-04-25 23:40 | -12.92477 | -170.22871 | 28158 ft | 533 kts | 207° |
| 2026-04-25 23:40 | -12.95736 | -170.24663 | 27514 ft | 537 kts | 207° |
| 2026-04-25 23:40 | -12.99023 | -170.26459 | 26835 ft | 524 kts | 207° |
| 2026-04-25 23:40 | -13.02239 | -170.28204 | 26194 ft | 527 kts | 207° |
| 2026-04-25 23:41 | -13.05488 | -170.29965 | 25590 ft | 530 kts | 207° |
| 2026-04-25 23:41 | -13.08731 | -170.31723 | 24946 ft | 521 kts | 207° |
| 2026-04-25 23:41 | -13.11925 | -170.33456 | 24309 ft | 513 kts | 207° |
| 2026-04-25 23:41 | -13.15047 | -170.35152 | 23678 ft | 505 kts | 207° |
| 2026-04-25 23:42 | -13.18124 | -170.36824 | 23047 ft | 498 kts | 207° |
| 2026-04-25 23:42 | -13.21183 | -170.38486 | 22417 ft | 492 kts | 207° |
| 2026-04-25 23:42 | -13.24206 | -170.40128 | 21803 ft | 486 kts | 206° |
| 2026-04-25 23:42 | -13.27138 | -170.41722 | 21202 ft | 480 kts | 207° |
| 2026-04-25 23:43 | -13.30100 | -170.43332 | 20782 ft | 469 kts | 207° |
| 2026-04-25 23:43 | -13.32896 | -170.44853 | 21117 ft | 442 kts | 206° |
| 2026-04-25 23:43 | -13.35602 | -170.46327 | 20895 ft | 439 kts | 206° |
| 2026-04-25 23:43 | -13.38294 | -170.47792 | 20333 ft | 438 kts | 206° |
| 2026-04-25 23:44 | -13.40959 | -170.49242 | 19773 ft | 435 kts | 206° |
| 2026-04-25 23:44 | -13.43670 | -170.50717 | 19199 ft | 432 kts | 206° |
| 2026-04-25 23:44 | -13.46309 | -170.52155 | 18637 ft | 429 kts | 206° |
| 2026-04-25 23:44 | -13.48937 | -170.53586 | 18074 ft | 426 kts | 206° |
| 2026-04-25 23:45 | -13.51544 | -170.55006 | 17510 ft | 423 kts | 206° |
| 2026-04-25 23:45 | -13.54132 | -170.56418 | 16949 ft | 420 kts | 206° |
| 2026-04-25 23:45 | -13.56723 | -170.57831 | 16385 ft | 417 kts | 206° |
| 2026-04-25 23:45 | -13.59260 | -170.59213 | 15827 ft | 414 kts | 206° |
| 2026-04-25 23:46 | -13.61824 | -170.60611 | 15259 ft | 411 kts | 206° |
| 2026-04-25 23:46 | -13.64338 | -170.61983 | 14698 ft | 408 kts | 206° |
| 2026-04-25 23:46 | -13.66833 | -170.63344 | 14137 ft | 406 kts | 206° |
| 2026-04-25 23:46 | -13.69322 | -170.64702 | 13572 ft | 403 kts | 206° |
| 2026-04-25 23:47 | -13.71789 | -170.66049 | 13008 ft | 400 kts | 207° |
| 2026-04-25 23:47 | -13.74258 | -170.67398 | 12439 ft | 397 kts | 207° |
| 2026-04-25 23:47 | -13.76666 | -170.68715 | 11881 ft | 394 kts | 206° |
| 2026-04-25 23:47 | -13.79071 | -170.70030 | 11318 ft | 391 kts | 206° |
| 2026-04-25 23:48 | -13.81474 | -170.71344 | 10871 ft | 384 kts | 206° |
| 2026-04-25 23:48 | -13.83785 | -170.72609 | 10698 ft | 370 kts | 206° |
| 2026-04-25 23:48 | -13.86041 | -170.73843 | 10556 ft | 355 kts | 206° |
| 2026-04-25 23:48 | -13.88183 | -170.75015 | 10416 ft | 342 kts | 206° |
| 2026-04-25 23:49 | -13.90254 | -170.76149 | 10275 ft | 330 kts | 206° |
| 2026-04-25 23:49 | -13.92252 | -170.77243 | 10134 ft | 318 kts | 205° |
| 2026-04-25 23:49 | -13.94157 | -170.78285 | 9992 ft | 307 kts | 205° |
| 2026-04-25 23:49 | -13.96049 | -170.79320 | 9684 ft | 306 kts | 205° |
| 2026-04-25 23:50 | -13.97921 | -170.80344 | 9322 ft | 305 kts | 205° |
| 2026-04-25 23:50 | -13.99798 | -170.81370 | 8954 ft | 303 kts | 205° |
| 2026-04-25 23:50 | -14.01661 | -170.82390 | 8586 ft | 301 kts | 205° |
| 2026-04-25 23:50 | -14.03519 | -170.83409 | 8217 ft | 300 kts | 205° |
| 2026-04-25 23:51 | -14.05345 | -170.84410 | 7853 ft | 299 kts | 205° |
| 2026-04-25 23:51 | -14.07184 | -170.85417 | 7483 ft | 297 kts | 205° |
| 2026-04-25 23:51 | -14.09008 | -170.86417 | 7114 ft | 296 kts | 205° |
| 2026-04-25 23:51 | -14.10824 | -170.87411 | 6748 ft | 295 kts | 205° |
| 2026-04-25 23:52 | -14.12653 | -170.88415 | 6379 ft | 295 kts | 205° |
| 2026-04-25 23:52 | -14.14462 | -170.89407 | 6008 ft | 294 kts | 205° |
| 2026-04-25 23:52 | -14.16268 | -170.90399 | 5641 ft | 293 kts | 205° |
| 2026-04-25 23:52 | -14.18067 | -170.91386 | 5266 ft | 292 kts | 205° |
| 2026-04-25 23:53 | -14.19866 | -170.92372 | 4896 ft | 292 kts | 205° |
| 2026-04-25 23:53 | -14.21666 | -170.93361 | 4542 ft | 291 kts | 205° |
| 2026-04-25 23:53 | -14.23447 | -170.94338 | 4188 ft | 290 kts | 205° |
| 2026-04-25 23:53 | -14.25231 | -170.95317 | 3867 ft | 288 kts | 205° |
| 2026-04-25 23:54 | -14.26980 | -170.96278 | 3724 ft | 279 kts | 205° |
| 2026-04-25 23:54 | -14.28657 | -170.97203 | 3687 ft | 266 kts | 204° |
| 2026-04-25 23:54 | -14.30263 | -170.98085 | 3674 ft | 258 kts | 204° |
| 2026-04-25 23:54 | -14.31851 | -170.98956 | 3686 ft | 258 kts | 204° |
| 2026-04-25 23:55 | -14.33438 | -170.99828 | 3681 ft | 256 kts | 204° |
| 2026-04-25 23:55 | -14.34992 | -171.00682 | 3678 ft | 247 kts | 204° |
| 2026-04-25 23:55 | -14.36521 | -171.01523 | 3682 ft | 247 kts | 204° |
| 2026-04-25 23:55 | -14.38069 | -171.02248 | 3682 ft | 241 kts | 186° |
| 2026-04-25 23:56 | -14.39689 | -171.02121 | 3688 ft | 229 kts | 150° |
| 2026-04-25 23:56 | -14.40840 | -171.01123 | 3682 ft | 209 kts | 122° |
| 2026-04-25 23:56 | -14.41622 | -170.99904 | 3675 ft | 201 kts | 119° |
| 2026-04-25 23:56 | -14.42365 | -170.98677 | 3682 ft | 199 kts | 119° |
| 2026-04-25 23:57 | -14.43076 | -170.97505 | 3688 ft | 189 kts | 119° |
| 2026-04-25 23:57 | -14.43776 | -170.96352 | 3687 ft | 191 kts | 119° |
| 2026-04-25 23:57 | -14.44480 | -170.95193 | 3679 ft | 189 kts | 119° |
| 2026-04-25 23:57 | -14.45181 | -170.94041 | 3677 ft | 189 kts | 118° |
| 2026-04-25 23:58 | -14.45436 | -170.92761 | 3689 ft | 186 kts | 78° |
| 2026-04-25 23:58 | -14.44899 | -170.91553 | 3686 ft | 187 kts | 67° |
| 2026-04-25 23:58 | -14.44380 | -170.90318 | 3676 ft | 186 kts | 69° |
| 2026-04-25 23:58 | -14.43866 | -170.89133 | 3668 ft | 173 kts | 67° |
| 2026-04-25 23:59 | -14.43315 | -170.88045 | 3513 ft | 169 kts | 64° |
| 2026-04-25 23:59 | -14.42720 | -170.87010 | 3344 ft | 166 kts | 62° |
| 2026-04-25 23:59 | -14.42109 | -170.86009 | 3152 ft | 164 kts | 61° |
| 2026-04-25 23:59 | -14.41499 | -170.85019 | 2916 ft | 160 kts | 61° |
| 2026-04-26 00:00 | -14.40922 | -170.84073 | 2698 ft | 155 kts | 62° |
| 2026-04-26 00:00 | -14.40354 | -170.83128 | 2500 ft | 152 kts | 62° |
| 2026-04-26 00:00 | -14.39800 | -170.82199 | 2302 ft | 153 kts | 62° |
| 2026-04-26 00:00 | -14.39244 | -170.81262 | 2107 ft | 152 kts | 62° |
| 2026-04-26 00:01 | -14.38694 | -170.80342 | 1873 ft | 144 kts | 62° |
| 2026-04-26 00:01 | -14.38183 | -170.79486 | 1689 ft | 139 kts | 63° |
| 2026-04-26 00:01 | -14.37690 | -170.78657 | 1534 ft | 133 kts | 63° |
| 2026-04-26 00:01 | -14.37130 | -170.77869 | 1369 ft | 137 kts | 53° |
| 2026-04-26 00:02 | -14.36538 | -170.77090 | 1191 ft | 139 kts | 64° |
| 2026-04-26 00:02 | -14.36079 | -170.76228 | 959 ft | 137 kts | 65° |
| 2026-04-26 00:02 | -14.35607 | -170.75375 | 806 ft | 139 kts | 64° |
| 2026-04-26 00:02 | -14.35134 | -170.74515 | 593 ft | 136 kts | 65° |
| 2026-04-26 00:03 | -14.34648 | -170.73619 | 373 ft | 150 kts | 65° |
| 2026-04-26 00:03 | -14.34120 | -170.72659 | 178 ft | 155 kts | 64° |
| 2026-04-26 00:03 | -14.33585 | -170.71706 | 51 ft | 150 kts | 64° |
| 2026-04-26 00:03 | -14.33029 | -170.70729 | 442 ft | 166 kts | 62° |
| 2026-04-26 00:04 | -14.32549 | -170.69725 | 1364 ft | 164 kts | 81° |
| 2026-04-26 00:04 | -14.32606 | -170.68514 | 2186 ft | 176 kts | 98° |
| 2026-04-26 00:04 | -14.32795 | -170.67285 | 3135 ft | 181 kts | 99° |
| 2026-04-26 00:04 | -14.32996 | -170.66034 | 4120 ft | 181 kts | 98° |
| 2026-04-26 00:05 | -14.33207 | -170.64668 | 4578 ft | 199 kts | 99° |
| 2026-04-26 00:05 | -14.33435 | -170.63283 | 4827 ft | 202 kts | 100° |
| 2026-04-26 00:05 | -14.33680 | -170.61803 | 4917 ft | 213 kts | 99° |
| 2026-04-26 00:05 | -14.33905 | -170.60373 | 5523 ft | 197 kts | 99° |
| 2026-04-26 00:06 | -14.34122 | -170.58990 | 5657 ft | 208 kts | 101° |
| 2026-04-26 00:06 | -14.34846 | -170.57614 | 5448 ft | 236 kts | 135° |
| 2026-04-26 00:06 | -14.36378 | -170.56804 | 5391 ft | 259 kts | 160° |
| 2026-04-26 00:06 | -14.38143 | -170.56287 | 5371 ft | 263 kts | 162° |
| 2026-04-26 00:07 | -14.39925 | -170.55801 | 5381 ft | 261 kts | 165° |
| 2026-04-26 00:07 | -14.41744 | -170.55855 | 5383 ft | 271 kts | 195° |
| 2026-04-26 00:07 | -14.43378 | -170.56877 | 5128 ft | 279 kts | 225° |
| 2026-04-26 00:07 | -14.44425 | -170.58551 | 5016 ft | 277 kts | 241° |
| 2026-04-26 00:08 | -14.45289 | -170.60315 | 4988 ft | 278 kts | 242° |
| 2026-04-26 00:08 | -14.46156 | -170.62125 | 4985 ft | 279 kts | 242° |
| 2026-04-26 00:08 | -14.47007 | -170.63910 | 4977 ft | 279 kts | 242° |
| 2026-04-26 00:08 | -14.47868 | -170.65717 | 4967 ft | 278 kts | 242° |
| 2026-04-26 00:09 | -14.48718 | -170.67508 | 4967 ft | 279 kts | 242° |
| 2026-04-26 00:09 | -14.49579 | -170.69322 | 4971 ft | 279 kts | 242° |
| 2026-04-26 00:09 | -14.50429 | -170.71106 | 4978 ft | 280 kts | 242° |
| 2026-04-26 00:09 | -14.51285 | -170.72900 | 4973 ft | 279 kts | 242° |
| 2026-04-26 00:10 | -14.52151 | -170.74712 | 4823 ft | 283 kts | 242° |
| 2026-04-26 00:10 | -14.53024 | -170.76533 | 4535 ft | 282 kts | 242° |
| 2026-04-26 00:10 | -14.53891 | -170.78345 | 4240 ft | 280 kts | 242° |
| 2026-04-26 00:10 | -14.54741 | -170.80148 | 3873 ft | 280 kts | 246° |
| 2026-04-26 00:11 | -14.55108 | -170.82115 | 3516 ft | 280 kts | 274° |
| 2026-04-26 00:11 | -14.54657 | -170.84064 | 3187 ft | 276 kts | 291° |
| 2026-04-26 00:11 | -14.53837 | -170.85812 | 3027 ft | 265 kts | 301° |
| 2026-04-26 00:11 | -14.52948 | -170.87418 | 2958 ft | 254 kts | 302° |
| 2026-04-26 00:12 | -14.52078 | -170.88977 | 2738 ft | 250 kts | 302° |
| 2026-04-26 00:12 | -14.51155 | -170.90453 | 2529 ft | 238 kts | 319° |
| 2026-04-26 00:12 | -14.49772 | -170.91238 | 2319 ft | 216 kts | 356° |
| 2026-04-26 00:12 | -14.48318 | -170.91533 | 2115 ft | 210 kts | 352° |
| 2026-04-26 00:13 | -14.46924 | -170.91628 | 1952 ft | 193 kts | 25° |
| 2026-04-26 00:13 | -14.45720 | -170.91017 | 1973 ft | 191 kts | 42° |
| 2026-04-26 00:13 | -14.44774 | -170.90100 | 1980 ft | 186 kts | 51° |
| 2026-04-26 00:13 | -14.43922 | -170.89069 | 1989 ft | 185 kts | 56° |
| 2026-04-26 00:14 | -14.43184 | -170.87991 | 1998 ft | 184 kts | 60° |
| 2026-04-26 00:14 | -14.42531 | -170.86899 | 2012 ft | 173 kts | 63° |
| 2026-04-26 00:14 | -14.41922 | -170.85820 | 2020 ft | 173 kts | 63° |
| 2026-04-26 00:14 | -14.41315 | -170.84750 | 2029 ft | 172 kts | 63° |
| 2026-04-26 00:15 | -14.40691 | -170.83679 | 2038 ft | 173 kts | 62° |
| 2026-04-26 00:15 | -14.40066 | -170.82626 | 2047 ft | 173 kts | 62° |
| 2026-04-26 00:15 | -14.39428 | -170.81557 | 2054 ft | 175 kts | 62° |
| 2026-04-26 00:15 | -14.38805 | -170.80519 | 1939 ft | 165 kts | 62° |
| 2026-04-26 00:16 | -14.38215 | -170.79535 | 1690 ft | 155 kts | 62° |
| 2026-04-26 00:16 | -14.37667 | -170.78622 | 1456 ft | 145 kts | 61° |
| 2026-04-26 00:16 | -14.37088 | -170.77835 | 1349 ft | 134 kts | 54° |
| 2026-04-26 00:16 | -14.36508 | -170.77061 | 1173 ft | 135 kts | 63° |
| 2026-04-26 00:17 | -14.36044 | -170.76216 | 999 ft | 133 kts | 66° |
| 2026-04-26 00:17 | -14.35593 | -170.75366 | 711 ft | 134 kts | 64° |
| 2026-04-26 00:17 | -14.35130 | -170.74527 | 536 ft | 139 kts | 65° |
| 2026-04-26 00:17 | -14.34662 | -170.73648 | 326 ft | 140 kts | 64° |
| 2026-04-26 00:18 | -14.34183 | -170.72784 | 144 ft | 139 kts | 64° |
| 2026-04-26 00:18 | -14.33698 | -170.71909 | 46 ft | 138 kts | 64° |
| 2026-04-26 00:18 | -14.33260 | -170.71118 | 22 ft | 108 kts | 61° |
| 2026-04-26 00:18 | -14.32965 | -170.70592 | 22 ft | 64 kts | 60° |
| 2026-04-26 00:19 | -14.32815 | -170.70323 | 22 ft | 21 kts | 60° |
| 2026-04-26 00:19 | -14.32782 | -170.70264 | 21 ft | 16 kts | 59° |
| 2026-04-26 00:19 | -14.32687 | -170.70186 | 21 ft | 16 kts | 2° |
| 2026-04-26 00:19 | -14.32642 | -170.70274 | 21 ft | 16 kts | 270° |
| 2026-04-26 00:20 | -14.32641 | -170.70430 | 22 ft | 27 kts | 270° |
| 2026-04-26 00:20 | -14.32642 | -170.70645 | 20 ft | 31 kts | 270° |
| 2026-04-26 00:20 | -14.32641 | -170.70869 | 25 ft | 29 kts | 270° |
| 2026-04-26 00:20 | -14.32641 | -170.71078 | 26 ft | 28 kts | 269° |
| 2026-04-26 00:21 | -14.32644 | -170.71214 | 25 ft | 13 kts | 258° |
| 2026-04-26 00:21 | -14.32709 | -170.71252 | 27 ft | 6 kts | 179° |
| 2026-04-26 00:21 | -14.32711 | -170.71252 | 27 ft | 0 kts | 176° |
| 2026-04-26 00:21 | -14.32730 | -170.71254 | 27 ft | 4 kts | 191° |
| 2026-04-26 00:22 | -14.32755 | -170.71271 | 27 ft | 3 kts | 216° |
| 2026-04-26 00:22 | -14.32770 | -170.71278 | 28 ft | 2 kts | 201° |
| 2026-04-26 00:22 | -14.32787 | -170.71281 | 28 ft | 1 kts | 178° |
| 2026-04-26 00:22 | -14.32791 | -170.71281 | 28 ft | 0 kts | 180° |